createdAt,value
2022-10-12T00:03:38.250Z,35.77
2022-10-12T00:08:46.178Z,33.77
2022-10-12T00:13:55.807Z,25.23
2022-10-12T00:19:03.906Z,29.93
2022-10-12T00:24:11.827Z,29.27
2022-10-12T00:29:19.850Z,34.93
2022-10-12T00:34:27.715Z,21.30
2022-10-12T00:39:36.070Z,31.60
2022-10-12T00:44:46.726Z,34.53
2022-10-12T00:49:57.887Z,27.23
2022-10-12T00:55:07.202Z,28.37
2022-10-12T01:00:15.575Z,28.47
2022-10-12T01:05:23.631Z,27.00
2022-10-12T01:10:31.519Z,31.37
2022-10-12T01:15:43.327Z,30.97
2022-10-12T01:26:09.848Z,26.57
2022-10-12T01:31:20.942Z,29.97
2022-10-12T01:41:48.281Z,35.90
2022-10-12T01:46:57.298Z,32.17
2022-10-12T01:52:08.510Z,28.63
2022-10-12T02:07:46.345Z,31.87
2022-10-12T02:12:54.510Z,26.97
2022-10-12T02:18:03.595Z,32.00
2022-10-12T02:23:11.891Z,20.67
2022-10-12T02:28:25.235Z,26.43
2022-10-12T02:33:36.391Z,24.07
2022-10-12T02:38:47.427Z,18.20
2022-10-12T02:43:58.624Z,22.97
2022-10-12T02:49:06.600Z,30.80
2022-10-12T02:54:14.384Z,24.93
2022-10-12T02:59:23.228Z,33.77
2022-10-12T03:04:31.239Z,31.53
2022-10-12T03:09:39.161Z,27.53
2022-10-12T03:14:46.978Z,37.47
2022-10-12T03:19:54.923Z,36.40
2022-10-12T03:25:02.980Z,35.17
2022-10-12T03:30:11.908Z,35.40
2022-10-12T03:35:19.729Z,35.03
2022-10-12T03:40:28.622Z,38.80
2022-10-12T03:45:37.088Z,35.60
2022-10-12T03:50:46.652Z,29.30
2022-10-12T03:55:55.845Z,30.03
2022-10-12T04:01:04.007Z,34.40
2022-10-12T04:06:12.027Z,28.50
2022-10-12T04:11:20.711Z,28.53
2022-10-12T04:16:31.126Z,38.97
2022-10-12T04:21:39.148Z,33.20
2022-10-12T04:26:47.961Z,31.23
2022-10-12T04:31:55.833Z,25.97
2022-10-12T04:37:04.472Z,27.47
2022-10-12T04:42:12.454Z,33.60
2022-10-12T04:47:20.891Z,31.13
2022-10-12T04:52:28.889Z,26.47
2022-10-12T04:57:37.518Z,26.67
2022-10-12T05:02:45.552Z,31.67
2022-10-12T05:13:32.502Z,28.80
2022-10-12T05:18:40.293Z,32.67
2022-10-12T05:23:52.868Z,35.47
2022-10-12T05:29:04.283Z,33.07
2022-10-12T05:34:12.273Z,33.13
2022-10-12T05:39:20.230Z,35.50
2022-10-12T05:44:28.117Z,26.27
2022-10-12T05:49:36.209Z,34.70
2022-10-12T05:54:44.509Z,26.87
2022-10-12T05:59:52.742Z,34.47
2022-10-12T06:05:01.106Z,27.93
2022-10-12T06:10:12.371Z,31.80
2022-10-12T06:15:21.967Z,36.00
2022-10-12T06:20:29.809Z,37.63
2022-10-12T06:25:38.188Z,42.27
2022-10-12T06:30:46.145Z,38.27
2022-10-12T06:35:55.231Z,29.10
2022-10-12T06:41:03.048Z,39.33
2022-10-12T06:46:11.196Z,38.63
2022-10-12T06:51:19.437Z,43.27
2022-10-12T06:56:27.656Z,43.73
2022-10-12T07:01:35.645Z,49.83
2022-10-12T07:06:43.549Z,52.40
2022-10-12T07:11:51.430Z,51.00
2022-10-12T07:16:59.393Z,54.10
2022-10-12T07:22:07.239Z,50.00
2022-10-12T07:27:15.165Z,42.23
2022-10-12T07:32:23.305Z,42.23
2022-10-12T07:37:32.309Z,43.23
2022-10-12T07:42:59.150Z,40.53
2022-10-12T07:47:50.038Z,30.67
2022-10-12T07:52:58.579Z,45.23
2022-10-12T07:58:06.349Z,32.53
2022-10-12T08:03:14.315Z,32.07
2022-10-12T08:08:22.269Z,36.77
2022-10-12T08:13:30.148Z,38.00
2022-10-12T08:18:38.073Z,40.20
2022-10-12T08:23:46.094Z,39.57
2022-10-12T08:28:54.683Z,33.57
2022-10-12T08:34:03.136Z,29.20
2022-10-12T08:39:11.500Z,35.90
2022-10-12T08:49:32.602Z,27.73
2022-10-12T08:54:42.435Z,31.80
2022-10-12T08:59:50.288Z,26.63
2022-10-12T09:05:01.215Z,23.47
2022-10-12T09:10:12.205Z,24.53
2022-10-12T09:15:22.939Z,22.17
2022-10-12T09:20:36.316Z,24.17
2022-10-12T09:25:44.467Z,25.97
2022-10-12T09:30:56.151Z,22.30
2022-10-12T09:36:05.118Z,24.67
2022-10-12T09:41:16.639Z,22.23
2022-10-12T09:46:28.434Z,21.50
2022-10-12T09:51:37.332Z,27.23
2022-10-12T09:56:47.143Z,18.80
2022-10-12T10:01:58.157Z,26.73
2022-10-12T10:07:09.128Z,20.77
2022-10-12T10:12:25.448Z,20.63
2022-10-12T10:17:35.136Z,17.50
2022-10-12T10:22:47.158Z,16.70
2022-10-12T10:27:58.123Z,21.10
2022-10-12T10:33:08.870Z,17.33
2022-10-12T10:38:16.964Z,13.47
2022-10-12T10:43:27.889Z,10.87
2022-10-12T10:48:39.937Z,17.77
2022-10-12T10:53:52.224Z,15.83
2022-10-12T10:59:07.710Z,10.57
2022-10-12T11:04:15.646Z,14.47
2022-10-12T11:09:27.702Z,15.47
2022-10-12T11:14:38.221Z,10.00
2022-10-12T11:19:50.804Z,11.60
2022-10-12T11:30:16.580Z,10.90
2022-10-12T11:35:28.375Z,8.60
2022-10-12T11:45:52.170Z,9.33
2022-10-12T11:51:03.858Z,13.60
2022-10-12T11:56:13.297Z,11.17
2022-10-12T12:01:24.338Z,5.97
2022-10-12T12:11:48.273Z,11.07
2022-10-12T12:16:59.329Z,5.90
2022-10-12T12:22:10.683Z,7.03
2022-10-12T12:27:21.832Z,5.83
2022-10-12T12:32:32.887Z,6.33
2022-10-12T12:37:41.134Z,11.50
2022-10-12T12:42:49.062Z,11.23
2022-10-12T12:47:56.954Z,8.97
2022-10-12T12:53:08.838Z,7.47
2022-10-12T12:58:19.781Z,7.70
2022-10-12T13:03:30.913Z,6.00
2022-10-12T13:08:42.962Z,6.73
2022-10-12T13:13:53.984Z,6.70
2022-10-12T13:19:02.873Z,6.03
2022-10-12T13:29:26.837Z,4.50
2022-10-12T13:34:38.134Z,9.47
2022-10-12T13:39:47.403Z,9.13
2022-10-12T13:44:56.251Z,8.63
2022-10-12T13:50:04.520Z,6.53
2022-10-12T13:55:15.479Z,5.30
2022-10-12T14:00:26.573Z,6.40
2022-10-12T14:05:35.697Z,10.93
2022-10-12T14:10:44.705Z,5.63
2022-10-12T14:15:52.502Z,4.43
2022-10-12T14:21:03.664Z,7.97
2022-10-12T14:26:14.791Z,4.83
2022-10-12T14:31:25.801Z,5.67
2022-10-12T14:36:33.585Z,9.57
2022-10-12T14:41:44.934Z,10.20
2022-10-12T14:46:56.027Z,9.17
2022-10-12T14:52:05.594Z,6.57
2022-10-12T14:57:16.759Z,8.03
2022-10-12T15:02:27.912Z,12.10
2022-10-12T15:07:35.948Z,9.03
2022-10-12T15:12:44.396Z,9.07
2022-10-12T15:17:52.571Z,10.30
2022-10-12T15:23:00.802Z,8.70
2022-10-12T15:28:08.794Z,11.67
2022-10-12T15:33:16.716Z,7.50
2022-10-12T15:38:24.666Z,13.73
2022-10-12T15:43:35.628Z,13.80
2022-10-12T15:48:44.116Z,14.93
2022-10-12T15:53:54.437Z,14.90
2022-10-12T15:59:02.799Z,18.37
2022-10-12T16:04:12.302Z,16.60
2022-10-12T16:09:20.264Z,18.30
2022-10-12T16:14:28.365Z,15.87
2022-10-12T16:19:37.033Z,11.77
2022-10-12T16:24:44.912Z,11.70
2022-10-12T16:29:53.150Z,14.20
2022-10-12T16:35:01.051Z,20.27
2022-10-12T16:40:09.667Z,26.33
2022-10-12T16:45:17.611Z,34.03
2022-10-12T16:50:26.541Z,24.87
2022-10-12T16:55:34.690Z,24.83
2022-10-12T17:00:43.657Z,30.77
2022-10-12T17:05:54.698Z,26.10
2022-10-12T17:11:05.760Z,33.50
2022-10-12T17:16:15.517Z,36.37
2022-10-12T17:21:24.440Z,42.20
2022-10-12T17:26:32.461Z,47.37
2022-10-12T17:31:40.923Z,50.60
2022-10-12T17:36:48.943Z,81.20
2022-10-12T17:41:57.434Z,79.50
2022-10-12T17:47:05.418Z,58.20
2022-10-12T17:52:16.662Z,68.50
2022-10-12T17:57:25.145Z,60.90
2022-10-12T18:02:33.235Z,57.10
2022-10-12T18:07:41.481Z,57.33
2022-10-12T18:12:50.489Z,61.57
2022-10-12T18:17:59.061Z,61.07
2022-10-12T18:23:07.083Z,57.33
2022-10-12T18:28:15.574Z,52.33
2022-10-12T18:33:23.556Z,50.17
2022-10-12T18:38:31.980Z,43.40
2022-10-12T18:43:39.903Z,42.40
2022-10-12T18:48:49.169Z,40.90
2022-10-12T18:53:57.583Z,40.03
2022-10-12T18:59:06.044Z,46.27
2022-10-12T19:04:15.837Z,38.50
2022-10-12T19:09:25.439Z,39.00
2022-10-12T19:14:36.338Z,40.67
2022-10-12T19:19:44.679Z,40.87
2022-10-12T19:24:53.330Z,36.77
2022-10-12T19:30:01.947Z,39.03
2022-10-12T19:35:10.180Z,54.40
2022-10-12T19:40:19.504Z,59.13
2022-10-12T19:45:28.889Z,50.90
2022-10-12T19:50:40.261Z,51.00
2022-10-12T19:55:49.919Z,54.33
2022-10-12T20:01:02.112Z,56.13
2022-10-12T20:06:10.813Z,56.30
2022-10-12T20:11:24.358Z,52.50
2022-10-12T20:16:34.824Z,56.13
2022-10-12T20:21:41.230Z,53.83
2022-10-12T20:26:49.263Z,57.10
2022-10-12T20:31:57.844Z,58.83
2022-10-12T20:37:05.699Z,45.10
2022-10-12T20:42:16.891Z,40.77
2022-10-12T20:47:23.990Z,36.57
2022-10-12T20:52:32.090Z,47.57
2022-10-12T20:57:40.463Z,38.53
2022-10-12T21:02:48.659Z,39.07
2022-10-12T21:07:56.814Z,35.43
2022-10-12T21:13:04.803Z,38.17
2022-10-12T21:18:13.332Z,33.10
2022-10-12T21:23:25.490Z,36.80
2022-10-12T21:28:33.474Z,33.83
2022-10-12T21:33:41.544Z,30.17
2022-10-12T21:38:50.459Z,29.80
2022-10-12T21:43:58.721Z,35.80
2022-10-12T21:49:08.901Z,35.80
2022-10-12T21:54:17.265Z,36.17
2022-10-12T21:59:25.116Z,32.07
2022-10-12T22:04:33.180Z,31.77
2022-10-12T22:09:41.432Z,35.70
2022-10-12T22:14:49.601Z,37.87
2022-10-12T22:19:57.517Z,45.23
2022-10-12T22:25:06.401Z,37.93
2022-10-12T22:30:14.631Z,40.73
2022-10-12T22:35:22.445Z,37.10
2022-10-12T22:40:31.115Z,35.17
2022-10-12T22:45:39.245Z,31.60
2022-10-12T22:50:47.897Z,33.87
2022-10-12T22:55:59.867Z,30.87
2022-10-12T23:01:09.939Z,32.07
2022-10-12T23:06:19.094Z,29.10
2022-10-12T23:11:28.655Z,31.27
2022-10-12T23:16:37.154Z,35.73
2022-10-12T23:21:45.318Z,33.83
2022-10-12T23:26:53.383Z,35.60
2022-10-12T23:32:01.373Z,30.93
2022-10-12T23:37:09.769Z,34.73
2022-10-12T23:42:17.903Z,30.60
2022-10-12T23:47:26.054Z,27.90
2022-10-12T23:52:34.144Z,29.10
2022-10-12T23:57:47.135Z,27.93
